sensor_id;sensor_type;location;lat;lon;timestamp;pressure;altitude;pressure_sealevel;temperature;humidity
33151;BME280;19508;42.578;23.416;2023-01-27T00:01:03;92831.16;;;1.89;80.46
33151;BME280;19508;42.578;23.416;2023-01-27T00:03:29;92819.91;;;2.06;80.02
33151;BME280;19508;42.578;23.416;2023-01-27T00:05:54;92811.97;;;2.17;79.37
33151;BME280;19508;42.578;23.416;2023-01-27T00:08:21;92813.97;;;2.04;79.55
33151;BME280;19508;42.578;23.416;2023-01-27T00:10:46;92805.50;;;1.83;80.03
33151;BME280;19508;42.578;23.416;2023-01-27T00:13:32;92810.53;;;2.03;79.87
33151;BME280;19508;42.578;23.416;2023-01-27T00:15:57;92787.09;;;2.00;79.69
33151;BME280;19508;42.578;23.416;2023-01-27T00:18:23;92787.06;;;1.88;79.94
33151;BME280;19508;42.578;23.416;2023-01-27T00:20:48;92791.19;;;1.84;80.47
33151;BME280;19508;42.578;23.416;2023-01-27T00:23:32;92807.19;;;2.08;80.45
33151;BME280;19508;42.578;23.416;2023-01-27T00:26:17;92798.06;;;2.04;80.28
33151;BME280;19508;42.578;23.416;2023-01-27T00:28:45;92797.38;;;2.08;80.09
33151;BME280;19508;42.578;23.416;2023-01-27T00:31:13;92803.09;;;1.93;80.50
33151;BME280;19508;42.578;23.416;2023-01-27T00:33:57;92795.59;;;1.90;80.71
33151;BME280;19508;42.578;23.416;2023-01-27T00:36:29;92793.88;;;1.96;80.67
33151;BME280;19508;42.578;23.416;2023-01-27T00:38:55;92798.03;;;1.92;80.66
33151;BME280;19508;42.578;23.416;2023-01-27T00:41:21;92792.22;;;1.83;80.94
33151;BME280;19508;42.578;23.416;2023-01-27T00:43:53;92809.28;;;1.76;81.52
33151;BME280;19508;42.578;23.416;2023-01-27T00:46:20;92805.22;;;1.73;81.66
33151;BME280;19508;42.578;23.416;2023-01-27T00:48:46;92806.94;;;1.97;80.47
33151;BME280;19508;42.578;23.416;2023-01-27T00:51:12;92811.56;;;2.02;80.31
33151;BME280;19508;42.578;23.416;2023-01-27T00:53:38;92819.09;;;2.05;80.36
33151;BME280;19508;42.578;23.416;2023-01-27T00:56:04;92815.25;;;2.01;80.16
33151;BME280;19508;42.578;23.416;2023-01-27T00:58:30;92817.91;;;2.01;80.54
33151;BME280;19508;42.578;23.416;2023-01-27T01:00:57;92808.91;;;2.02;79.87
33151;BME280;19508;42.578;23.416;2023-01-27T01:03:24;92803.38;;;2.04;80.04
33151;BME280;19508;42.578;23.416;2023-01-27T01:05:50;92793.97;;;1.89;80.34
33151;BME280;19508;42.578;23.416;2023-01-27T01:08:16;92791.72;;;1.75;81.04
33151;BME280;19508;42.578;23.416;2023-01-27T01:10:41;92797.69;;;1.70;81.38
33151;BME280;19508;42.578;23.416;2023-01-27T01:13:06;92784.03;;;1.85;81.06
33151;BME280;19508;42.578;23.416;2023-01-27T01:15:35;92786.84;;;2.02;80.00
33151;BME280;19508;42.578;23.416;2023-01-27T01:18:02;92795.53;;;2.09;79.93
33151;BME280;19508;42.578;23.416;2023-01-27T01:20:27;92784.91;;;1.97;79.93
33151;BME280;19508;42.578;23.416;2023-01-27T01:22:53;92770.94;;;2.02;80.20
33151;BME280;19508;42.578;23.416;2023-01-27T01:25:18;92782.75;;;1.87;80.86
33151;BME280;19508;42.578;23.416;2023-01-27T01:27:44;92785.72;;;2.09;80.32
33151;BME280;19508;42.578;23.416;2023-01-27T01:30:10;92793.53;;;1.92;80.37
33151;BME280;19508;42.578;23.416;2023-01-27T01:32:36;92787.75;;;1.95;80.19
33151;BME280;19508;42.578;23.416;2023-01-27T01:35:01;92800.38;;;2.00;79.85
33151;BME280;19508;42.578;23.416;2023-01-27T01:37:27;92815.66;;;1.86;80.51
33151;BME280;19508;42.578;23.416;2023-01-27T01:39:52;92816.94;;;1.95;80.28
33151;BME280;19508;42.578;23.416;2023-01-27T01:42:17;92800.75;;;1.85;80.46
33151;BME280;19508;42.578;23.416;2023-01-27T01:44:43;92813.41;;;2.02;80.69
33151;BME280;19508;42.578;23.416;2023-01-27T01:47:18;92811.16;;;2.17;80.29
33151;BME280;19508;42.578;23.416;2023-01-27T01:49:45;92795.78;;;2.07;80.09
33151;BME280;19508;42.578;23.416;2023-01-27T01:52:17;92795.69;;;2.14;80.33
33151;BME280;19508;42.578;23.416;2023-01-27T01:54:50;92789.69;;;2.30;79.63
33151;BME280;19508;42.578;23.416;2023-01-27T01:57:21;92771.22;;;2.35;78.74
33151;BME280;19508;42.578;23.416;2023-01-27T01:59:53;92763.72;;;2.32;78.43
33151;BME280;19508;42.578;23.416;2023-01-27T02:02:22;92760.59;;;2.35;78.70
33151;BME280;19508;42.578;23.416;2023-01-27T02:04:55;92759.09;;;2.39;78.29
33151;BME280;19508;42.578;23.416;2023-01-27T02:07:37;92755.53;;;2.45;78.41
33151;BME280;19508;42.578;23.416;2023-01-27T02:10:04;92737.84;;;2.16;79.32
33151;BME280;19508;42.578;23.416;2023-01-27T02:12:29;92737.91;;;1.97;79.48
33151;BME280;19508;42.578;23.416;2023-01-27T02:14:55;92732.81;;;1.96;80.23
33151;BME280;19508;42.578;23.416;2023-01-27T02:17:20;92735.69;;;1.83;80.84
33151;BME280;19508;42.578;23.416;2023-01-27T02:20:19;92740.44;;;1.92;81.11
33151;BME280;19508;42.578;23.416;2023-01-27T02:23:04;92741.81;;;1.95;80.91
33151;BME280;19508;42.578;23.416;2023-01-27T02:27:59;92732.03;;;2.07;80.18
33151;BME280;19508;42.578;23.416;2023-01-27T02:30:24;92723.03;;;2.08;79.81
33151;BME280;19508;42.578;23.416;2023-01-27T02:32:50;92729.72;;;2.11;79.65
33151;BME280;19508;42.578;23.416;2023-01-27T02:35:20;92734.22;;;1.98;80.10
33151;BME280;19508;42.578;23.416;2023-01-27T02:37:49;92735.69;;;1.94;80.08
33151;BME280;19508;42.578;23.416;2023-01-27T02:40:15;92745.28;;;1.95;79.93
33151;BME280;19508;42.578;23.416;2023-01-27T02:42:41;92741.56;;;1.85;80.14
33151;BME280;19508;42.578;23.416;2023-01-27T02:45:07;92748.25;;;1.87;80.35
33151;BME280;19508;42.578;23.416;2023-01-27T02:47:32;92752.31;;;1.90;80.39
33151;BME280;19508;42.578;23.416;2023-01-27T02:49:58;92754.41;;;2.00;79.81
33151;BME280;19508;42.578;23.416;2023-01-27T02:52:23;92754.91;;;2.08;79.69
33151;BME280;19508;42.578;23.416;2023-01-27T02:54:49;92753.63;;;1.99;79.88
33151;BME280;19508;42.578;23.416;2023-01-27T02:57:14;92752.00;;;1.68;80.56
33151;BME280;19508;42.578;23.416;2023-01-27T02:59:39;92751.38;;;1.84;80.63
33151;BME280;19508;42.578;23.416;2023-01-27T03:02:05;92743.44;;;1.54;81.97
33151;BME280;19508;42.578;23.416;2023-01-27T03:04:31;92743.75;;;1.46;82.43
33151;BME280;19508;42.578;23.416;2023-01-27T03:06:56;92721.28;;;1.60;81.46
33151;BME280;19508;42.578;23.416;2023-01-27T03:09:22;92729.75;;;1.69;80.66
33151;BME280;19508;42.578;23.416;2023-01-27T03:11:47;92724.34;;;1.76;80.88
33151;BME280;19508;42.578;23.416;2023-01-27T03:14:31;92729.66;;;1.87;80.44
33151;BME280;19508;42.578;23.416;2023-01-27T03:17:15;92714.69;;;1.93;80.35
33151;BME280;19508;42.578;23.416;2023-01-27T03:19:59;92723.75;;;1.44;81.73
33151;BME280;19508;42.578;23.416;2023-01-27T03:22:24;92722.41;;;1.53;82.18
33151;BME280;19508;42.578;23.416;2023-01-27T03:24:50;92706.53;;;1.34;82.81
33151;BME280;19508;42.578;23.416;2023-01-27T03:27:16;92693.34;;;1.46;82.57
33151;BME280;19508;42.578;23.416;2023-01-27T03:29:45;92677.94;;;1.36;82.97
33151;BME280;19508;42.578;23.416;2023-01-27T03:32:21;92678.72;;;1.55;82.75
33151;BME280;19508;42.578;23.416;2023-01-27T03:34:46;92665.81;;;1.70;81.69
33151;BME280;19508;42.578;23.416;2023-01-27T03:37:12;92680.75;;;1.41;82.38
33151;BME280;19508;42.578;23.416;2023-01-27T03:39:56;92680.56;;;1.25;83.50
33151;BME280;19508;42.578;23.416;2023-01-27T03:42:40;92671.34;;;1.69;82.47
33151;BME280;19508;42.578;23.416;2023-01-27T03:45:24;92655.56;;;1.74;81.48
33151;BME280;19508;42.578;23.416;2023-01-27T03:48:08;92673.13;;;1.75;81.75
33151;BME280;19508;42.578;23.416;2023-01-27T03:50:34;92656.16;;;1.76;81.48
33151;BME280;19508;42.578;23.416;2023-01-27T03:53:06;92669.69;;;1.98;80.23
33151;BME280;19508;42.578;23.416;2023-01-27T03:55:33;92669.81;;;2.03;80.40
33151;BME280;19508;42.578;23.416;2023-01-27T03:58:00;92667.00;;;1.86;79.50
33151;BME280;19508;42.578;23.416;2023-01-27T04:00:49;92690.38;;;2.08;79.98
33151;BME280;19508;42.578;23.416;2023-01-27T04:03:14;92698.91;;;2.10;80.11
33151;BME280;19508;42.578;23.416;2023-01-27T04:06:02;92717.50;;;1.98;80.39
33151;BME280;19508;42.578;23.416;2023-01-27T04:08:47;92724.47;;;1.81;81.10
33151;BME280;19508;42.578;23.416;2023-01-27T04:11:13;92737.59;;;1.64;81.82
33151;BME280;19508;42.578;23.416;2023-01-27T04:14:00;92735.13;;;1.92;80.97
33151;BME280;19508;42.578;23.416;2023-01-27T04:16:25;92726.44;;;1.85;80.45
33151;BME280;19508;42.578;23.416;2023-01-27T04:18:53;92727.94;;;1.81;80.85
33151;BME280;19508;42.578;23.416;2023-01-27T04:21:19;92719.53;;;1.84;80.98
33151;BME280;19508;42.578;23.416;2023-01-27T04:23:45;92733.75;;;1.90;80.56
33151;BME280;19508;42.578;23.416;2023-01-27T04:26:10;92756.94;;;1.94;80.30
33151;BME280;19508;42.578;23.416;2023-01-27T04:28:35;92752.97;;;1.85;80.77
33151;BME280;19508;42.578;23.416;2023-01-27T04:31:01;92761.75;;;1.86;80.33
33151;BME280;19508;42.578;23.416;2023-01-27T04:33:27;92748.72;;;1.84;80.49
33151;BME280;19508;42.578;23.416;2023-01-27T04:35:55;92745.28;;;1.95;80.28
33151;BME280;19508;42.578;23.416;2023-01-27T04:38:22;92757.53;;;1.66;80.85
33151;BME280;19508;42.578;23.416;2023-01-27T04:40:47;92758.09;;;1.57;81.82
33151;BME280;19508;42.578;23.416;2023-01-27T04:43:13;92759.00;;;1.81;81.16
33151;BME280;19508;42.578;23.416;2023-01-27T04:45:38;92747.81;;;1.60;81.35
33151;BME280;19508;42.578;23.416;2023-01-27T04:48:04;92769.75;;;1.37;82.32
33151;BME280;19508;42.578;23.416;2023-01-27T04:50:31;92768.56;;;1.33;82.78
33151;BME280;19508;42.578;23.416;2023-01-27T04:52:57;92772.38;;;1.56;82.33
33151;BME280;19508;42.578;23.416;2023-01-27T04:55:22;92775.56;;;1.46;82.43
33151;BME280;19508;42.578;23.416;2023-01-27T04:57:48;92752.34;;;1.41;82.52
33151;BME280;19508;42.578;23.416;2023-01-27T05:00:13;92762.34;;;1.58;81.84
33151;BME280;19508;42.578;23.416;2023-01-27T05:02:39;92767.81;;;1.63;81.62
33151;BME280;19508;42.578;23.416;2023-01-27T05:05:05;92758.34;;;1.67;81.60
33151;BME280;19508;42.578;23.416;2023-01-27T05:07:31;92761.34;;;1.70;81.89
33151;BME280;19508;42.578;23.416;2023-01-27T05:09:57;92745.25;;;1.84;80.45
33151;BME280;19508;42.578;23.416;2023-01-27T05:12:22;92763.16;;;1.88;80.10
33151;BME280;19508;42.578;23.416;2023-01-27T05:14:48;92763.19;;;2.00;79.97
33151;BME280;19508;42.578;23.416;2023-01-27T05:17:15;92755.56;;;2.04;79.97
33151;BME280;19508;42.578;23.416;2023-01-27T05:19:40;92757.25;;;1.86;80.25
33151;BME280;19508;42.578;23.416;2023-01-27T05:22:06;92758.13;;;1.98;79.72
33151;BME280;19508;42.578;23.416;2023-01-27T05:24:31;92739.84;;;1.90;79.35
33151;BME280;19508;42.578;23.416;2023-01-27T05:26:57;92733.38;;;1.86;78.89
33151;BME280;19508;42.578;23.416;2023-01-27T05:29:22;92741.34;;;1.86;78.92
33151;BME280;19508;42.578;23.416;2023-01-27T05:31:48;92733.97;;;1.88;79.18
33151;BME280;19508;42.578;23.416;2023-01-27T05:34:13;92738.31;;;1.71;79.33
33151;BME280;19508;42.578;23.416;2023-01-27T05:36:41;92744.25;;;1.96;79.27
33151;BME280;19508;42.578;23.416;2023-01-27T05:39:09;92723.94;;;2.02;78.93
33151;BME280;19508;42.578;23.416;2023-01-27T05:41:34;92733.03;;;1.94;78.49
33151;BME280;19508;42.578;23.416;2023-01-27T05:44:00;92725.31;;;1.93;78.68
33151;BME280;19508;42.578;23.416;2023-01-27T05:46:27;92724.69;;;1.79;78.83
33151;BME280;19508;42.578;23.416;2023-01-27T05:48:55;92747.81;;;1.90;78.71
33151;BME280;19508;42.578;23.416;2023-01-27T05:51:24;92736.03;;;1.86;78.99
33151;BME280;19508;42.578;23.416;2023-01-27T05:53:50;92748.97;;;1.94;78.65
33151;BME280;19508;42.578;23.416;2023-01-27T05:56:17;92767.47;;;2.01;78.76
33151;BME280;19508;42.578;23.416;2023-01-27T05:58:43;92755.00;;;2.02;78.51
33151;BME280;19508;42.578;23.416;2023-01-27T06:01:12;92746.53;;;1.93;78.47
33151;BME280;19508;42.578;23.416;2023-01-27T06:03:38;92741.94;;;2.00;78.30
33151;BME280;19508;42.578;23.416;2023-01-27T06:06:04;92744.38;;;2.13;78.21
33151;BME280;19508;42.578;23.416;2023-01-27T06:08:31;92740.03;;;2.19;77.94
33151;BME280;19508;42.578;23.416;2023-01-27T06:10:57;92731.00;;;2.20;78.04
33151;BME280;19508;42.578;23.416;2023-01-27T06:13:23;92752.16;;;2.26;78.07
33151;BME280;19508;42.578;23.416;2023-01-27T06:15:49;92751.34;;;2.26;78.31
33151;BME280;19508;42.578;23.416;2023-01-27T06:18:16;92737.69;;;2.11;78.15
33151;BME280;19508;42.578;23.416;2023-01-27T06:20:43;92747.19;;;2.18;78.16
33151;BME280;19508;42.578;23.416;2023-01-27T06:23:12;92757.00;;;2.18;78.38
33151;BME280;19508;42.578;23.416;2023-01-27T06:25:40;92729.53;;;2.24;78.06
33151;BME280;19508;42.578;23.416;2023-01-27T06:28:06;92751.38;;;2.49;77.46
33151;BME280;19508;42.578;23.416;2023-01-27T06:30:33;92730.00;;;2.44;76.78
33151;BME280;19508;42.578;23.416;2023-01-27T06:32:59;92735.31;;;2.44;76.10
33151;BME280;19508;42.578;23.416;2023-01-27T06:35:25;92755.09;;;2.48;77.50
33151;BME280;19508;42.578;23.416;2023-01-27T06:37:50;92756.31;;;2.22;78.31
33151;BME280;19508;42.578;23.416;2023-01-27T06:40:16;92745.00;;;2.27;78.65
33151;BME280;19508;42.578;23.416;2023-01-27T06:42:42;92762.44;;;2.23;78.80
33151;BME280;19508;42.578;23.416;2023-01-27T06:45:10;92755.31;;;1.93;79.60
33151;BME280;19508;42.578;23.416;2023-01-27T06:47:37;92766.16;;;1.92;79.96
33151;BME280;19508;42.578;23.416;2023-01-27T06:50:03;92773.88;;;2.23;78.88
33151;BME280;19508;42.578;23.416;2023-01-27T06:52:28;92757.25;;;2.28;78.60
33151;BME280;19508;42.578;23.416;2023-01-27T06:54:54;92766.25;;;1.85;79.54
33151;BME280;19508;42.578;23.416;2023-01-27T06:57:19;92770.41;;;1.81;80.77
33151;BME280;19508;42.578;23.416;2023-01-27T06:59:44;92790.47;;;1.77;80.96
33151;BME280;19508;42.578;23.416;2023-01-27T07:02:13;92779.13;;;1.70;81.97
33151;BME280;19508;42.578;23.416;2023-01-27T07:04:39;92787.69;;;1.72;81.58
33151;BME280;19508;42.578;23.416;2023-01-27T07:07:04;92774.69;;;1.82;80.45
33151;BME280;19508;42.578;23.416;2023-01-27T07:09:30;92785.16;;;2.19;80.04
33151;BME280;19508;42.578;23.416;2023-01-27T07:11:55;92765.59;;;2.32;79.92
33151;BME280;19508;42.578;23.416;2023-01-27T07:14:21;92758.75;;;2.24;79.34
33151;BME280;19508;42.578;23.416;2023-01-27T07:16:46;92768.72;;;2.40;78.62
33151;BME280;19508;42.578;23.416;2023-01-27T07:19:12;92758.88;;;2.52;78.19
33151;BME280;19508;42.578;23.416;2023-01-27T07:21:37;92774.84;;;2.52;77.70
33151;BME280;19508;42.578;23.416;2023-01-27T07:24:03;92769.38;;;2.47;77.85
33151;BME280;19508;42.578;23.416;2023-01-27T07:26:29;92767.09;;;2.51;77.41
33151;BME280;19508;42.578;23.416;2023-01-27T07:28:55;92772.31;;;2.69;77.47
33151;BME280;19508;42.578;23.416;2023-01-27T07:31:20;92779.22;;;2.70;77.27
33151;BME280;19508;42.578;23.416;2023-01-27T07:33:46;92772.03;;;2.47;77.32
33151;BME280;19508;42.578;23.416;2023-01-27T07:36:11;92773.56;;;2.43;77.61
33151;BME280;19508;42.578;23.416;2023-01-27T07:38:37;92779.91;;;2.54;77.74
33151;BME280;19508;42.578;23.416;2023-01-27T07:41:06;92785.59;;;2.69;77.53
33151;BME280;19508;42.578;23.416;2023-01-27T07:43:32;92764.66;;;2.73;77.23
33151;BME280;19508;42.578;23.416;2023-01-27T07:45:57;92778.19;;;2.48;77.87
33151;BME280;19508;42.578;23.416;2023-01-27T07:48:23;92785.81;;;2.68;77.97
33151;BME280;19508;42.578;23.416;2023-01-27T07:50:49;92785.38;;;2.94;76.93
33151;BME280;19508;42.578;23.416;2023-01-27T07:53:14;92792.38;;;2.53;78.24
33151;BME280;19508;42.578;23.416;2023-01-27T07:55:40;92782.81;;;2.76;77.94
33151;BME280;19508;42.578;23.416;2023-01-27T07:58:06;92782.84;;;2.99;76.78
33151;BME280;19508;42.578;23.416;2023-01-27T08:00:32;92785.22;;;3.13;75.76
33151;BME280;19508;42.578;23.416;2023-01-27T08:02:59;92785.59;;;2.81;77.39
33151;BME280;19508;42.578;23.416;2023-01-27T08:05:26;92786.06;;;2.78;76.94
33151;BME280;19508;42.578;23.416;2023-01-27T08:07:53;92774.22;;;2.39;77.80
33151;BME280;19508;42.578;23.416;2023-01-27T08:10:19;92780.41;;;2.74;77.10
33151;BME280;19508;42.578;23.416;2023-01-27T08:12:46;92768.97;;;2.74;76.99
33151;BME280;19508;42.578;23.416;2023-01-27T08:15:11;92776.47;;;2.77;76.84
33151;BME280;19508;42.578;23.416;2023-01-27T08:17:37;92782.03;;;2.75;76.99
33151;BME280;19508;42.578;23.416;2023-01-27T08:20:03;92783.41;;;2.66;77.30
33151;BME280;19508;42.578;23.416;2023-01-27T08:22:29;92781.78;;;2.89;76.30
33151;BME280;19508;42.578;23.416;2023-01-27T08:24:55;92787.91;;;3.01;75.57
33151;BME280;19508;42.578;23.416;2023-01-27T08:27:21;92777.63;;;2.93;75.92
33151;BME280;19508;42.578;23.416;2023-01-27T08:29:46;92774.28;;;2.86;75.93
33151;BME280;19508;42.578;23.416;2023-01-27T08:32:12;92787.34;;;2.75;77.14
33151;BME280;19508;42.578;23.416;2023-01-27T08:34:38;92783.50;;;2.60;77.18
33151;BME280;19508;42.578;23.416;2023-01-27T08:37:04;92796.69;;;2.66;76.89
33151;BME280;19508;42.578;23.416;2023-01-27T08:39:31;92787.66;;;2.55;77.91
33151;BME280;19508;42.578;23.416;2023-01-27T08:41:57;92791.59;;;2.53;78.13
33151;BME280;19508;42.578;23.416;2023-01-27T08:44:25;92790.63;;;2.47;78.64
33151;BME280;19508;42.578;23.416;2023-01-27T08:46:53;92791.59;;;2.65;77.47
33151;BME280;19508;42.578;23.416;2023-01-27T08:49:18;92802.47;;;2.75;77.33
33151;BME280;19508;42.578;23.416;2023-01-27T08:51:44;92787.47;;;2.92;76.94
33151;BME280;19508;42.578;23.416;2023-01-27T08:54:12;92785.38;;;2.94;75.99
33151;BME280;19508;42.578;23.416;2023-01-27T08:56:37;92786.28;;;2.88;76.20
33151;BME280;19508;42.578;23.416;2023-01-27T08:59:03;92787.44;;;2.69;76.76
33151;BME280;19508;42.578;23.416;2023-01-27T09:01:28;92790.22;;;2.62;77.58
33151;BME280;19508;42.578;23.416;2023-01-27T09:03:54;92782.81;;;2.76;77.30
33151;BME280;19508;42.578;23.416;2023-01-27T09:06:19;92789.06;;;2.81;77.65
33151;BME280;19508;42.578;23.416;2023-01-27T09:08:46;92771.63;;;2.86;77.38
33151;BME280;19508;42.578;23.416;2023-01-27T09:11:33;92783.97;;;2.57;77.81
33151;BME280;19508;42.578;23.416;2023-01-27T09:13:59;92792.88;;;2.62;78.07
33151;BME280;19508;42.578;23.416;2023-01-27T09:16:24;92773.34;;;2.80;76.81
33151;BME280;19508;42.578;23.416;2023-01-27T09:18:50;92778.66;;;2.80;76.94
33151;BME280;19508;42.578;23.416;2023-01-27T09:21:16;92790.13;;;2.92;76.80
33151;BME280;19508;42.578;23.416;2023-01-27T09:23:41;92775.19;;;2.91;76.51
33151;BME280;19508;42.578;23.416;2023-01-27T09:26:07;92780.16;;;2.99;76.13
33151;BME280;19508;42.578;23.416;2023-01-27T09:28:32;92782.59;;;2.89;76.63
33151;BME280;19508;42.578;23.416;2023-01-27T09:30:58;92790.69;;;2.59;77.78
33151;BME280;19508;42.578;23.416;2023-01-27T09:33:24;92775.31;;;2.49;78.79
33151;BME280;19508;42.578;23.416;2023-01-27T09:36:02;92766.53;;;2.61;78.53
33151;BME280;19508;42.578;23.416;2023-01-27T09:38:32;92763.38;;;2.64;77.88
33151;BME280;19508;42.578;23.416;2023-01-27T09:52:17;92742.81;;;2.47;80.01
33151;BME280;19508;42.578;23.416;2023-01-27T09:57:51;92746.03;;;2.14;80.48
33151;BME280;19508;42.578;23.416;2023-01-27T10:00:44;92733.28;;;2.05;81.24
33151;BME280;19508;42.578;23.416;2023-01-27T10:25:02;92709.34;;;2.23;80.68
33151;BME280;19508;42.578;23.416;2023-01-27T10:27:36;92728.16;;;2.68;79.43
33151;BME280;19508;42.578;23.416;2023-01-27T10:30:11;92707.94;;;2.44;79.79
33151;BME280;19508;42.578;23.416;2023-01-27T10:32:49;92731.63;;;2.34;79.98
33151;BME280;19508;42.578;23.416;2023-01-27T10:38:30;92734.50;;;2.79;78.13
33151;BME280;19508;42.578;23.416;2023-01-27T10:44:00;92727.56;;;2.78;78.28
33151;BME280;19508;42.578;23.416;2023-01-27T10:49:19;92720.06;;;2.63;78.63
33151;BME280;19508;42.578;23.416;2023-01-27T10:52:00;92732.31;;;2.64;78.12
33151;BME280;19508;42.578;23.416;2023-01-27T10:54:37;92726.88;;;2.47;79.17
33151;BME280;19508;42.578;23.416;2023-01-27T10:57:10;92725.16;;;2.65;79.01
33151;BME280;19508;42.578;23.416;2023-01-27T11:04:59;92713.94;;;2.63;78.63
33151;BME280;19508;42.578;23.416;2023-01-27T11:07:25;92709.56;;;2.57;78.78
33151;BME280;19508;42.578;23.416;2023-01-27T11:09:56;92706.09;;;2.68;78.63
33151;BME280;19508;42.578;23.416;2023-01-27T11:12:39;92704.00;;;2.70;78.47
33151;BME280;19508;42.578;23.416;2023-01-27T11:15:25;92705.63;;;2.47;79.29
33151;BME280;19508;42.578;23.416;2023-01-27T11:17:56;92697.06;;;2.45;79.41
33151;BME280;19508;42.578;23.416;2023-01-27T11:20:36;92698.59;;;2.53;79.26
33151;BME280;19508;42.578;23.416;2023-01-27T11:23:22;92702.59;;;2.09;80.38
33151;BME280;19508;42.578;23.416;2023-01-27T11:26:14;92699.38;;;2.30;80.44
33151;BME280;19508;42.578;23.416;2023-01-27T11:34:26;92710.59;;;2.44;79.87
33151;BME280;19508;42.578;23.416;2023-01-27T11:36:54;92700.44;;;2.41;80.10
33151;BME280;19508;42.578;23.416;2023-01-27T11:39:20;92694.53;;;2.27;81.19
33151;BME280;19508;42.578;23.416;2023-01-27T11:41:53;92691.19;;;2.43;80.61
33151;BME280;19508;42.578;23.416;2023-01-27T11:44:24;92680.19;;;2.05;82.00
33151;BME280;19508;42.578;23.416;2023-01-27T11:46:51;92680.00;;;2.41;80.42
33151;BME280;19508;42.578;23.416;2023-01-27T11:49:29;92670.50;;;2.22;81.27
33151;BME280;19508;42.578;23.416;2023-01-27T11:52:01;92679.50;;;2.56;80.60
33151;BME280;19508;42.578;23.416;2023-01-27T11:54:34;92683.56;;;2.47;80.36
33151;BME280;19508;42.578;23.416;2023-01-27T11:57:01;92681.94;;;2.34;81.60
33151;BME280;19508;42.578;23.416;2023-01-27T11:59:32;92688.66;;;2.48;80.99
33151;BME280;19508;42.578;23.416;2023-01-27T12:02:26;92689.56;;;2.66;80.51
33151;BME280;19508;42.578;23.416;2023-01-27T12:05:00;92687.84;;;2.48;80.27
33151;BME280;19508;42.578;23.416;2023-01-27T12:07:34;92692.25;;;2.42;80.62
33151;BME280;19508;42.578;23.416;2023-01-27T12:10:28;92694.78;;;2.61;80.68
33151;BME280;19508;42.578;23.416;2023-01-27T12:12:56;92693.97;;;2.48;80.42
33151;BME280;19508;42.578;23.416;2023-01-27T12:15:24;92686.78;;;2.72;79.10
33151;BME280;19508;42.578;23.416;2023-01-27T12:17:57;92682.25;;;2.73;78.74
33151;BME280;19508;42.578;23.416;2023-01-27T12:20:36;92688.88;;;2.47;80.48
33151;BME280;19508;42.578;23.416;2023-01-27T12:23:27;92690.47;;;2.71;80.60
33151;BME280;19508;42.578;23.416;2023-01-27T12:25:59;92682.50;;;2.83;78.86
33151;BME280;19508;42.578;23.416;2023-01-27T12:28:52;92677.00;;;2.49;80.29
33151;BME280;19508;42.578;23.416;2023-01-27T12:31:28;92684.00;;;2.79;78.78
33151;BME280;19508;42.578;23.416;2023-01-27T12:34:01;92677.03;;;2.90;78.36
33151;BME280;19508;42.578;23.416;2023-01-27T12:36:27;92692.31;;;2.71;79.14
33151;BME280;19508;42.578;23.416;2023-01-27T12:38:56;92690.72;;;2.70;79.36
33151;BME280;19508;42.578;23.416;2023-01-27T12:41:27;92687.59;;;2.73;78.17
33151;BME280;19508;42.578;23.416;2023-01-27T12:44:15;92686.75;;;2.96;78.31
33151;BME280;19508;42.578;23.416;2023-01-27T12:46:56;92682.16;;;2.68;79.64
33151;BME280;19508;42.578;23.416;2023-01-27T12:49:21;92689.13;;;2.34;80.11
33151;BME280;19508;42.578;23.416;2023-01-27T12:51:53;92689.44;;;2.84;79.48
33151;BME280;19508;42.578;23.416;2023-01-27T12:54:24;92678.38;;;2.40;79.83
33151;BME280;19508;42.578;23.416;2023-01-27T12:56:53;92691.44;;;2.42;80.13
33151;BME280;19508;42.578;23.416;2023-01-27T12:59:21;92676.13;;;2.72;79.25
33151;BME280;19508;42.578;23.416;2023-01-27T13:02:25;92685.19;;;2.36;80.47
33151;BME280;19508;42.578;23.416;2023-01-27T13:05:00;92679.31;;;2.34;80.88
33151;BME280;19508;42.578;23.416;2023-01-27T13:07:38;92674.09;;;2.39;80.59
33151;BME280;19508;42.578;23.416;2023-01-27T13:10:18;92678.84;;;2.25;80.94
33151;BME280;19508;42.578;23.416;2023-01-27T13:12:50;92672.59;;;2.43;79.98
33151;BME280;19508;42.578;23.416;2023-01-27T13:15:18;92684.16;;;2.49;79.61
33151;BME280;19508;42.578;23.416;2023-01-27T13:17:49;92666.94;;;2.28;79.50
33151;BME280;19508;42.578;23.416;2023-01-27T13:20:36;92683.06;;;2.03;80.96
33151;BME280;19508;42.578;23.416;2023-01-27T13:23:18;92682.78;;;2.23;81.05
33151;BME280;19508;42.578;23.416;2023-01-27T13:28:17;92685.75;;;2.38;80.25
33151;BME280;19508;42.578;23.416;2023-01-27T13:30:49;92687.03;;;2.59;79.78
33151;BME280;19508;42.578;23.416;2023-01-27T13:33:35;92682.41;;;2.66;79.30
33151;BME280;19508;42.578;23.416;2023-01-27T13:36:06;92686.22;;;2.70;78.86
33151;BME280;19508;42.578;23.416;2023-01-27T13:38:41;92690.47;;;2.71;79.37
33151;BME280;19508;42.578;23.416;2023-01-27T13:41:19;92679.78;;;2.31;79.54
33151;BME280;19508;42.578;23.416;2023-01-27T13:44:02;92682.06;;;2.63;79.22
33151;BME280;19508;42.578;23.416;2023-01-27T13:46:32;92685.88;;;2.55;79.11
33151;BME280;19508;42.578;23.416;2023-01-27T13:49:15;92684.50;;;2.06;80.76
33151;BME280;19508;42.578;23.416;2023-01-27T13:51:41;92688.53;;;2.20;80.61
33151;BME280;19508;42.578;23.416;2023-01-27T13:54:11;92692.94;;;2.14;80.99
33151;BME280;19508;42.578;23.416;2023-01-27T13:56:56;92703.56;;;2.26;81.18
33151;BME280;19508;42.578;23.416;2023-01-27T14:02:57;92694.06;;;2.07;81.44
33151;BME280;19508;42.578;23.416;2023-01-27T14:10:37;92712.56;;;2.48;79.07
33151;BME280;19508;42.578;23.416;2023-01-27T14:16:51;92713.94;;;2.16;80.30
33151;BME280;19508;42.578;23.416;2023-01-27T14:24:49;92723.75;;;2.39;79.07
33151;BME280;19508;42.578;23.416;2023-01-27T14:27:51;92719.84;;;2.53;78.96
33151;BME280;19508;42.578;23.416;2023-01-27T14:30:24;92723.44;;;2.59;77.79
33151;BME280;19508;42.578;23.416;2023-01-27T14:35:51;92724.00;;;2.49;78.25